Hestrud (Nord, France) - 208 m
Donnes mto: Actuelle jeudi, 21/01/2021 23:02
Date Horaire Temp Out Temp. 4 Temp. E. min Temp. E. max Temp. Sol 1 Hum Out Hum. Sol 1 Press Rain Wind Dir Dir Solar Ev.Tr. UV Hi Solar Rad Dew Point Windchill Wind (Gust)
21/01/2021 23:02 7,9 C 0,0 C 7,9 C 7,9 C 7,2 C 92 % 92 cb 984,6 hPa 0,2 mm 20,9 km/h (4 Bft) SO 225 0 min 0,025 mm 0,0 UV-I 0 W/m 6,7 C 0,3 C 25,7 km/h (4 Bft)
21/01/2021 22:02 7,7 C 0,0 C 7,7 C 7,7 C 7,2 C 94 % 93 cb 985,3 hPa 0,4 mm 24,1 km/h (4 Bft) O-SO 247 0 min 0,025 mm 0,0 UV-I 0 W/m 6,8 C -1,0 C 38,6 km/h (5 Bft)
21/01/2021 21:02 8,2 C 0,0 C 8,2 C 8,2 C 7,8 C 93 % 94 cb 985,3 hPa 0,8 mm 29,0 km/h (5 Bft) SO 225 0 min 0,000 mm 0,0 UV-I 0 W/m 7,1 C -1,6 C 41,8 km/h (6 Bft)
21/01/2021 20:02 7,5 C 0,0 C 7,5 C 7,6 C 7,2 C 96 % 93 cb 985,3 hPa 0,8 mm 14,5 km/h (3 Bft) S-SE 157 0 min 0,000 mm 0,0 UV-I 0 W/m 6,9 C 2,3 C 22,5 km/h (4 Bft)
21/01/2021 19:02 6,8 C 0,0 C 6,8 C 6,8 C 6,7 C 96 % 92 cb 987,0 hPa 1,6 mm 20,9 km/h (4 Bft) SO 225 0 min 0,000 mm 0,0 UV-I 0 W/m 6,2 C -1,2 C 38,6 km/h (5 Bft)
21/01/2021 18:02 5,7 C 0,0 C 5,7 C 5,7 C 5,6 C 95 % 89 cb 988,8 hPa 1,4 mm 12,9 km/h (3 Bft) SO 225 0 min 0,000 mm 0,0 UV-I 0 W/m 5,0 C 1,0 C 17,7 km/h (3 Bft)
21/01/2021 17:02 6,1 C 0,0 C 6,1 C 6,1 C 5,6 C 91 % 90 cb 991,3 hPa 0,0 mm 14,5 km/h (3 Bft) S-SO 202 0 min 0,025 mm 0,0 UV-I 0 W/m 4,7 C 0,7 C 20,9 km/h (4 Bft)
21/01/2021 16:02 6,5 C 0,0 C 6,5 C 6,5 C 6,1 C 87 % 91 cb 992,7 hPa 0,0 mm 11,3 km/h (2 Bft) S-SO 202 0 min 0,025 mm 0,0 UV-I 23 W/m 4,5 C 2,9 C 17,7 km/h (3 Bft)
21/01/2021 15:02 6,4 C 0,0 C 6,4 C 6,4 C 5,6 C 87 % 91 cb 993,5 hPa 0,0 mm 16,1 km/h (3 Bft) SO 225 0 min 0,051 mm 0,0 UV-I 47 W/m 4,4 C 0,3 C 24,1 km/h (4 Bft)
21/01/2021 14:02 6,2 C 0,0 C 6,2 C 6,2 C 5,6 C 88 % 92 cb 994,1 hPa 0,0 mm 16,1 km/h (3 Bft) SO 225 0 min 0,051 mm 0,0 UV-I 86 W/m 4,4 C 0,0 C 24,1 km/h (4 Bft)
21/01/2021 13:02 5,8 C 0,0 C 5,8 C 5,8 C 5,6 C 89 % 93 cb 994,8 hPa 0,0 mm 17,7 km/h (3 Bft) SO 225 6 min 0,076 mm 0,5 UV-I 105 W/m 4,1 C -1,2 C 25,7 km/h (4 Bft)
21/01/2021 12:02 5,3 C 0,0 C 5,2 C 5,3 C 5,0 C 91 % 94 cb 995,1 hPa 0,0 mm 20,9 km/h (4 Bft) SO 225 1 min 0,051 mm 0,5 UV-I 153 W/m 4,0 C -3,1 C 33,8 km/h (5 Bft)
21/01/2021 11:02 4,8 C 0,0 C 4,8 C 4,8 C 4,4 C 92 % 93 cb 995,2 hPa 0,0 mm 25,7 km/h (4 Bft) SO 225 0 min 0,051 mm 0,0 UV-I 88 W/m 3,6 C -5,4 C 38,6 km/h (5 Bft)
21/01/2021 10:02 4,2 C 0,0 C 4,2 C 4,2 C 3,9 C 94 % 92 cb 994,8 hPa 0,0 mm 16,1 km/h (3 Bft) SO 225 0 min 0,025 mm 0,0 UV-I 63 W/m 3,3 C -2,5 C 25,7 km/h (4 Bft)
21/01/2021 09:02 3,3 C 0,0 C 3,3 C 3,3 C 3,3 C 96 % 90 cb 994,1 hPa 0,0 mm 16,1 km/h (3 Bft) SO 225 0 min 0,000 mm 0,0 UV-I 28 W/m 2,7 C -3,6 C 19,3 km/h (3 Bft)
21/01/2021 08:02 3,5 C 0,0 C 3,5 C 3,5 C 3,3 C 96 % 89 cb 993,4 hPa 0,0 mm 14,5 km/h (3 Bft) SO 225 0 min 0,000 mm 0,0 UV-I 0 W/m 2,9 C -2,5 C 19,3 km/h (3 Bft)
21/01/2021 07:02 3,6 C 0,0 C 3,6 C 3,7 C 3,9 C 96 % 89 cb 992,4 hPa 0,2 mm 12,9 km/h (3 Bft) SO 225 0 min 0,000 mm 0,0 UV-I 0 W/m 3,0 C -1,4 C 17,7 km/h (3 Bft)
21/01/2021 06:02 3,8 C 0,0 C 3,8 C 3,8 C 3,9 C 96 % 86 cb 991,6 hPa 0,8 mm 11,3 km/h (2 Bft) O-SO 247 0 min 0,000 mm 0,0 UV-I 0 W/m 3,2 C -0,2 C 16,1 km/h (3 Bft)
21/01/2021 05:02 4,1 C 0,0 C 4,1 C 4,2 C 4,4 C 94 % 84 cb 990,4 hPa 3,0 mm 20,9 km/h (4 Bft) O 270 0 min 0,025 mm 0,0 UV-I 0 W/m 3,2 C -4,7 C 29,0 km/h (5 Bft)
21/01/2021 04:02 8,9 C 0,0 C 8,9 C 8,9 C 8,3 C 89 % 90 cb 986,6 hPa 0,2 mm 27,4 km/h (4 Bft) SO 225 0 min 0,025 mm 0,0 UV-I 0 W/m 7,2 C -0,3 C 48,3 km/h (6 Bft)
21/01/2021 03:02 8,5 C 0,0 C 8,5 C 8,5 C 7,8 C 90 % 89 cb 987,0 hPa 0,8 mm 20,9 km/h (4 Bft) S-SO 202 0 min 0,025 mm 0,0 UV-I 0 W/m 7,0 C 1,0 C 33,8 km/h (5 Bft)
21/01/2021 02:02 9,3 C 0,0 C 9,3 C 9,4 C 7,8 C 79 % 92 cb 987,2 hPa 0,0 mm 22,5 km/h (4 Bft) S-SO 202 0 min 0,051 mm 0,0 UV-I 0 W/m 5,8 C 1,6 C 46,7 km/h (6 Bft)
21/01/2021 01:02 9,3 C 0,0 C 9,3 C 9,3 C 7,8 C 77 % 92 cb 988,0 hPa 0,0 mm 24,1 km/h (4 Bft) S 180 0 min 0,051 mm 0,0 UV-I 0 W/m 5,5 C 1,1 C 45,1 km/h (6 Bft)
21/01/2021 00:02 9,3 C 0,0 C 9,3 C 9,3 C 7,8 C 79 % 93 cb 989,3 hPa 0,0 mm 24,1 km/h (4 Bft) S 180 0 min 0,051 mm 0,0 UV-I 0 W/m 5,8 C 1,1 C 32,2 km/h (5 Bft)
21/01/2021 00:00 9,3 C 0,0 C 9,3 C 9,3 C 7,8 C 79 % 93 cb 989,5 hPa 0,0 mm 27,4 km/h (4 Bft) S-SE 157 0 min 0,051 mm 0,0 UV-I 0 W/m 5,8 C 0,3 C 41,8 km/h (6 Bft)
_ Min-Heure 08:49 00:00 08:49 08:50 07:08 01:30 04:43 22:51 - 17:45 - - - - - - 08:49 04:59 15:48
Minimum _ 3,2 C 0,0 C 3,2 C 3,2 C 3,3 C 75 % 84 cb 984,6 hPa - 4,8 km/h (1 Bft) - - - - - - 2,6 C -7,7 C 9,7 km/h (2 Bft)
_ Max-Heure 01:49 00:00 01:36 01:49 01:28 05:57 11:25 11:51 04:35 04:19 - - 12:02 13:00 12:08 12:24 04:30 15:48 03:30
Maximum _ 9,8 C 0,0 C 9,7 C 9,8 C 8,3 C 96 % 94 cb 995,3 hPa 0,4 mm 38,6 km/h
SO (5 Bft)
- - 1 min 0,076 mm 0,6 UV-I 178 W/m 7,6 C 6,5 C 69,2 km/h
S-SO (8 Bft)
Moyenne _ 6,3 C 0,0 C 6,3 C 6,3 C 5,8 C 91 % 91 cb 990,5 hPa #10,2 mm 18,4 km/h (3 Bft) SO - #7 min. #0,633 mm 0,5 UV-I 26 W/m 4,9 C -0,5 C 28,9 km/h (5 Bft)